createdAt,value
2023-08-29T00:01:37.882Z,2.80
2023-08-29T00:03:52.496Z,2.60
2023-08-29T00:06:06.458Z,3.00
2023-08-29T00:08:19.123Z,3.40
2023-08-29T00:10:31.775Z,7.30
2023-08-29T00:12:44.480Z,4.90
2023-08-29T00:14:57.543Z,4.90
2023-08-29T00:17:10.208Z,3.10
2023-08-29T00:19:22.889Z,3.70
2023-08-29T00:21:35.663Z,3.20
2023-08-29T00:23:49.533Z,4.70
2023-08-29T00:26:02.257Z,4.20
2023-08-29T00:28:15.057Z,4.90
2023-08-29T00:30:27.699Z,5.00
2023-08-29T00:32:40.389Z,4.70
2023-08-29T00:34:53.136Z,3.50
2023-08-29T00:37:06.053Z,4.00
2023-08-29T00:39:18.742Z,6.90
2023-08-29T00:41:31.956Z,6.70
2023-08-29T00:43:44.644Z,4.70
2023-08-29T00:45:57.446Z,4.30
2023-08-29T00:48:10.851Z,3.10
2023-08-29T00:50:24.940Z,5.10
2023-08-29T00:52:37.687Z,4.10
2023-08-29T00:54:50.427Z,3.30
2023-08-29T00:57:03.838Z,3.50
2023-08-29T00:59:17.154Z,3.70
2023-08-29T01:01:32.030Z,4.60
2023-08-29T01:03:44.851Z,5.00
2023-08-29T01:05:57.508Z,3.80
2023-08-29T01:08:10.355Z,4.60
2023-08-29T01:10:45.886Z,4.10
2023-08-29T01:13:23.456Z,5.00
2023-08-29T01:15:36.862Z,3.90
2023-08-29T01:17:55.279Z,2.50
2023-08-29T01:20:10.373Z,4.30
2023-08-29T01:22:30.494Z,3.30
2023-08-29T01:25:13.324Z,2.50
2023-08-29T01:27:27.691Z,4.10
2023-08-29T01:29:41.336Z,2.10
2023-08-29T01:31:54.202Z,2.80
2023-08-29T01:34:07.517Z,2.80
2023-08-29T01:36:20.155Z,2.80
2023-08-29T01:38:32.848Z,3.60
2023-08-29T01:40:46.363Z,3.30
2023-08-29T01:42:59.054Z,2.70
2023-08-29T01:45:11.826Z,2.60
2023-08-29T01:47:24.672Z,1.80
2023-08-29T01:49:38.178Z,2.80
2023-08-29T01:51:50.921Z,3.80
2023-08-29T01:54:03.745Z,2.50
2023-08-29T01:56:17.790Z,1.50
2023-08-29T01:58:31.037Z,2.10
2023-08-29T02:00:43.812Z,1.50
2023-08-29T02:02:56.587Z,2.80
2023-08-29T02:05:09.379Z,1.40
2023-08-29T02:07:22.101Z,2.00
2023-08-29T02:09:34.779Z,2.00
2023-08-29T02:11:47.458Z,1.50
2023-08-29T02:14:00.184Z,1.80
2023-08-29T02:16:12.831Z,1.40
2023-08-29T02:18:26.453Z,1.40
2023-08-29T02:20:39.080Z,1.30
2023-08-29T02:22:51.701Z,1.50
2023-08-29T02:25:06.054Z,1.40
2023-08-29T02:27:18.729Z,1.40
2023-08-29T02:29:31.636Z,1.30
2023-08-29T02:31:44.356Z,1.30
2023-08-29T02:33:56.991Z,1.90
2023-08-29T02:36:10.053Z,1.40
2023-08-29T02:38:22.655Z,1.60
2023-08-29T02:40:35.265Z,2.10
2023-08-29T02:42:48.260Z,1.30
2023-08-29T02:45:00.926Z,1.30
2023-08-29T02:47:13.743Z,1.30
2023-08-29T02:49:26.393Z,1.40
2023-08-29T02:51:38.986Z,1.60
2023-08-29T02:53:51.658Z,1.30
2023-08-29T02:56:04.388Z,1.40
2023-08-29T02:58:17.044Z,1.40
2023-08-29T03:00:29.731Z,1.90
2023-08-29T03:02:43.351Z,1.50
2023-08-29T03:04:56.236Z,1.80
2023-08-29T03:07:09.107Z,1.60
2023-08-29T03:09:22.301Z,1.60
2023-08-29T03:11:34.999Z,1.40
2023-08-29T03:13:47.690Z,1.50
2023-08-29T03:16:01.015Z,1.60
2023-08-29T03:18:13.973Z,1.50
2023-08-29T03:20:26.759Z,1.60
2023-08-29T03:22:39.710Z,1.40
2023-08-29T03:24:52.342Z,1.70
2023-08-29T03:27:05.285Z,1.30
2023-08-29T03:29:17.983Z,1.50
2023-08-29T03:31:30.671Z,1.70
2023-08-29T03:33:45.027Z,1.60
2023-08-29T03:36:00.802Z,1.80
2023-08-29T03:38:13.422Z,2.00
2023-08-29T03:40:26.204Z,1.90
2023-08-29T03:42:38.862Z,1.30
2023-08-29T03:44:51.660Z,2.30
2023-08-29T03:47:04.895Z,3.00
2023-08-29T03:49:17.580Z,2.40
2023-08-29T03:51:30.344Z,2.00
2023-08-29T03:53:43.056Z,1.40
2023-08-29T03:55:55.742Z,2.10
2023-08-29T03:58:08.613Z,2.20
2023-08-29T04:00:21.385Z,1.50
2023-08-29T04:02:34.028Z,2.20
2023-08-29T04:04:46.933Z,1.60
2023-08-29T04:07:00.814Z,1.70
2023-08-29T04:09:13.432Z,1.50
2023-08-29T04:11:26.118Z,1.70
2023-08-29T04:13:38.732Z,1.60
2023-08-29T04:15:51.406Z,1.70
2023-08-29T04:18:06.645Z,1.40
2023-08-29T04:20:19.562Z,1.80
2023-08-29T04:22:32.166Z,2.50
2023-08-29T04:24:46.834Z,1.50
2023-08-29T04:26:59.476Z,1.50
2023-08-29T04:29:12.249Z,1.50
2023-08-29T04:31:25.014Z,1.60
2023-08-29T04:33:37.907Z,1.40
2023-08-29T04:35:53.066Z,1.70
2023-08-29T04:38:05.931Z,2.30
2023-08-29T04:40:19.753Z,1.70
2023-08-29T04:42:32.394Z,1.70
2023-08-29T04:44:47.288Z,1.50
2023-08-29T04:47:01.595Z,1.70
2023-08-29T04:49:15.015Z,2.80
2023-08-29T04:51:27.691Z,2.20
2023-08-29T04:53:40.326Z,1.60
2023-08-29T04:56:03.648Z,2.80
2023-08-29T04:58:16.324Z,2.40
2023-08-29T05:00:30.124Z,1.90
2023-08-29T05:02:43.695Z,3.30
2023-08-29T05:04:56.462Z,1.90
2023-08-29T05:07:09.998Z,2.70
2023-08-29T05:09:22.778Z,1.70
2023-08-29T05:11:35.662Z,1.90
2023-08-29T05:13:48.327Z,2.00
2023-08-29T05:16:00.948Z,3.10
2023-08-29T05:18:13.679Z,2.60
2023-08-29T05:20:26.404Z,2.60
2023-08-29T05:22:39.121Z,2.50
2023-08-29T05:24:52.109Z,5.10
2023-08-29T05:27:05.077Z,3.30
2023-08-29T05:29:17.675Z,2.10
2023-08-29T05:31:30.913Z,1.90
2023-08-29T05:33:43.693Z,2.20
2023-08-29T05:35:56.755Z,2.60
2023-08-29T05:38:10.273Z,2.20
2023-08-29T05:40:22.903Z,1.90
2023-08-29T05:42:35.565Z,2.30
2023-08-29T05:44:48.197Z,2.30
2023-08-29T05:47:00.824Z,2.70
2023-08-29T05:49:13.484Z,2.90
2023-08-29T05:51:29.852Z,3.20
2023-08-29T05:53:42.442Z,2.30
2023-08-29T05:55:55.058Z,4.10
2023-08-29T05:58:08.016Z,2.50
2023-08-29T06:00:20.983Z,2.70
2023-08-29T06:02:34.081Z,2.40
2023-08-29T06:04:47.530Z,3.40
2023-08-29T06:07:00.244Z,3.40
2023-08-29T06:09:13.530Z,3.10
2023-08-29T06:11:27.864Z,3.20
2023-08-29T06:13:40.504Z,2.60
2023-08-29T06:15:53.134Z,3.10
2023-08-29T06:18:06.264Z,3.00
2023-08-29T06:20:19.177Z,4.30
2023-08-29T06:22:31.791Z,3.00
2023-08-29T06:24:44.559Z,3.10
2023-08-29T06:26:57.203Z,2.50
2023-08-29T06:29:09.892Z,3.00
2023-08-29T06:31:22.629Z,2.80
2023-08-29T06:33:36.484Z,3.70
2023-08-29T06:35:49.181Z,2.70
2023-08-29T06:38:02.170Z,2.60
2023-08-29T06:40:14.744Z,2.80
2023-08-29T06:42:27.625Z,4.70
2023-08-29T06:44:40.281Z,2.90
2023-08-29T06:46:52.868Z,3.20
2023-08-29T06:49:07.174Z,3.70
2023-08-29T06:51:19.792Z,3.40
2023-08-29T06:53:32.407Z,4.30
2023-08-29T06:55:47.993Z,3.50
2023-08-29T06:58:00.612Z,4.00
2023-08-29T07:00:14.243Z,4.20
2023-08-29T07:02:27.070Z,3.60
2023-08-29T07:04:39.746Z,3.90
2023-08-29T07:06:52.362Z,4.00
2023-08-29T07:09:05.320Z,3.70
2023-08-29T07:11:17.985Z,3.90
2023-08-29T07:13:30.677Z,4.50
2023-08-29T07:15:43.267Z,4.00
2023-08-29T07:17:56.019Z,4.80
2023-08-29T07:20:12.421Z,3.80
2023-08-29T07:22:25.110Z,5.10
2023-08-29T07:24:40.668Z,4.10
2023-08-29T07:26:53.277Z,4.50
2023-08-29T07:29:05.862Z,4.20
2023-08-29T07:31:19.866Z,4.10
2023-08-29T07:33:32.503Z,4.20
2023-08-29T07:35:47.075Z,4.30
2023-08-29T07:37:59.720Z,3.90
2023-08-29T07:40:12.507Z,3.70
2023-08-29T07:42:25.152Z,3.70
2023-08-29T07:44:37.884Z,3.60
2023-08-29T07:47:07.841Z,4.50
2023-08-29T07:49:23.282Z,4.10
2023-08-29T07:51:36.920Z,5.10
2023-08-29T07:53:49.559Z,3.60
2023-08-29T07:56:02.205Z,4.20
2023-08-29T07:58:14.796Z,4.10
2023-08-29T08:00:29.476Z,4.80
2023-08-29T08:02:42.821Z,4.10
2023-08-29T08:04:56.630Z,5.10
2023-08-29T08:07:09.877Z,4.30
2023-08-29T08:09:22.445Z,4.00
2023-08-29T08:11:35.109Z,3.80
2023-08-29T08:13:47.778Z,4.10
2023-08-29T08:16:01.623Z,3.70
2023-08-29T08:18:15.421Z,3.60
2023-08-29T08:20:28.102Z,3.80
2023-08-29T08:22:42.242Z,3.70
2023-08-29T08:24:54.870Z,4.00
2023-08-29T08:27:08.501Z,4.70
2023-08-29T08:29:21.144Z,3.90
2023-08-29T08:31:33.848Z,3.80
2023-08-29T08:33:46.684Z,4.10
2023-08-29T08:35:59.367Z,3.80
2023-08-29T08:38:12.814Z,4.50
2023-08-29T08:40:25.987Z,4.10
2023-08-29T08:42:41.142Z,3.40
2023-08-29T08:44:54.914Z,3.60
2023-08-29T08:47:08.033Z,3.50
2023-08-29T08:49:20.907Z,4.50
2023-08-29T08:51:37.568Z,3.50
2023-08-29T08:53:52.860Z,3.10
2023-08-29T08:56:05.514Z,3.30
2023-08-29T08:58:19.646Z,3.20
2023-08-29T09:00:33.006Z,3.40
2023-08-29T09:02:46.204Z,3.10
2023-08-29T09:04:58.877Z,4.20
2023-08-29T09:07:11.479Z,3.70
2023-08-29T09:09:24.689Z,3.70
2023-08-29T09:11:42.961Z,3.60
2023-08-29T09:13:55.617Z,3.30
2023-08-29T09:16:08.726Z,3.30
2023-08-29T09:18:25.880Z,4.50
2023-08-29T09:20:38.459Z,6.00
2023-08-29T09:22:51.086Z,3.30
2023-08-29T09:25:07.090Z,3.60
2023-08-29T09:27:19.774Z,3.90
2023-08-29T09:29:32.402Z,4.50
2023-08-29T09:31:47.976Z,3.40
2023-08-29T09:34:00.739Z,3.60
2023-08-29T09:36:14.231Z,3.80
2023-08-29T09:38:30.053Z,3.80
2023-08-29T09:40:50.441Z,4.60
2023-08-29T09:43:05.516Z,4.10
2023-08-29T09:45:18.146Z,3.90
2023-08-29T09:47:30.712Z,4.10
2023-08-29T09:49:47.040Z,3.90
2023-08-29T09:52:02.358Z,3.70
2023-08-29T09:54:19.170Z,3.70
2023-08-29T09:56:34.732Z,4.30
2023-08-29T09:58:50.289Z,4.30
2023-08-29T10:01:06.005Z,3.80
2023-08-29T10:03:19.781Z,4.00
2023-08-29T10:05:37.399Z,3.60
2023-08-29T10:07:54.155Z,3.60
2023-08-29T10:10:14.469Z,3.50
2023-08-29T10:12:29.260Z,4.30
2023-08-29T10:14:44.228Z,3.80
2023-08-29T10:16:59.989Z,3.30
2023-08-29T10:19:14.329Z,3.50
2023-08-29T10:21:29.164Z,4.20
2023-08-29T10:23:43.126Z,3.60
2023-08-29T10:25:56.396Z,3.60
2023-08-29T10:28:11.375Z,4.20
2023-08-29T10:30:26.277Z,3.40
2023-08-29T10:32:41.045Z,7.10
2023-08-29T10:34:53.810Z,4.40
2023-08-29T10:37:06.596Z,3.70
2023-08-29T10:39:20.619Z,4.00
2023-08-29T10:41:47.543Z,5.00
2023-08-29T10:44:38.166Z,4.70
2023-08-29T10:46:54.509Z,5.40
2023-08-29T10:49:11.453Z,4.90
2023-08-29T10:51:26.228Z,4.30
2023-08-29T10:53:50.054Z,3.80
2023-08-29T10:56:05.239Z,4.20
2023-08-29T10:58:40.215Z,4.20
2023-08-29T11:00:54.977Z,3.70
2023-08-29T11:03:07.726Z,4.10
2023-08-29T11:05:20.896Z,4.40
2023-08-29T11:07:33.923Z,4.50
2023-08-29T11:09:46.699Z,4.30
2023-08-29T11:12:08.150Z,4.80
2023-08-29T11:14:53.460Z,5.40
2023-08-29T11:17:14.177Z,4.20
2023-08-29T11:19:27.204Z,4.80
2023-08-29T11:21:41.250Z,4.50
2023-08-29T11:24:09.683Z,4.90
2023-08-29T11:26:29.865Z,4.40
2023-08-29T11:28:46.242Z,4.70
2023-08-29T11:30:59.858Z,4.70
2023-08-29T11:33:13.397Z,4.80
2023-08-29T11:35:28.658Z,4.50
2023-08-29T11:37:41.450Z,4.20
2023-08-29T11:39:55.351Z,3.90
2023-08-29T11:42:35.689Z,3.80
2023-08-29T11:45:19.498Z,4.10
2023-08-29T11:47:17.816Z,4.60
2023-08-29T11:49:31.120Z,3.60
2023-08-29T11:51:44.528Z,3.70
2023-08-29T11:53:57.195Z,4.70
2023-08-29T11:56:12.983Z,4.30
2023-08-29T11:58:32.589Z,4.40
2023-08-29T12:00:45.420Z,5.00
2023-08-29T12:02:58.172Z,5.40
2023-08-29T12:05:14.295Z,5.20
2023-08-29T12:07:33.386Z,5.00
2023-08-29T12:09:47.370Z,5.00
2023-08-29T12:11:59.961Z,4.90
2023-08-29T12:14:12.650Z,5.60
2023-08-29T12:16:25.379Z,5.00
2023-08-29T12:18:38.085Z,5.60
2023-08-29T12:20:50.772Z,6.40
2023-08-29T12:23:03.435Z,5.20
2023-08-29T12:25:20.265Z,4.90
2023-08-29T12:27:33.454Z,5.60
2023-08-29T12:29:46.084Z,5.70
2023-08-29T12:31:59.327Z,5.10
2023-08-29T12:34:11.922Z,5.30
2023-08-29T12:36:24.714Z,5.50
2023-08-29T12:38:37.594Z,5.40
2023-08-29T12:40:50.462Z,5.20
2023-08-29T12:43:04.652Z,5.20
2023-08-29T12:45:17.502Z,5.90
2023-08-29T12:47:30.499Z,5.20
2023-08-29T12:49:43.167Z,4.70
2023-08-29T12:51:55.921Z,4.80
2023-08-29T12:54:08.558Z,4.70
2023-08-29T12:56:21.185Z,4.70
2023-08-29T12:58:33.794Z,4.60
2023-08-29T13:00:46.594Z,4.70
2023-08-29T13:02:59.308Z,4.70
2023-08-29T13:05:12.004Z,4.80
2023-08-29T13:07:24.668Z,5.10
2023-08-29T13:09:40.051Z,5.20
2023-08-29T13:11:52.712Z,5.30
2023-08-29T13:14:05.392Z,4.70
2023-08-29T13:16:18.996Z,4.90
2023-08-29T13:18:31.749Z,4.50
2023-08-29T13:20:44.447Z,5.50
2023-08-29T13:22:57.048Z,5.20
2023-08-29T13:25:10.107Z,5.60
2023-08-29T13:27:22.724Z,5.30
2023-08-29T13:29:35.810Z,5.30
2023-08-29T13:31:48.547Z,5.20
2023-08-29T13:34:01.203Z,5.20
2023-08-29T13:36:13.829Z,5.90
2023-08-29T13:38:27.423Z,5.40
2023-08-29T13:40:42.314Z,5.80
2023-08-29T13:42:56.663Z,5.60
2023-08-29T13:45:09.933Z,5.20
2023-08-29T13:47:23.462Z,5.10
2023-08-29T13:49:36.044Z,5.40
2023-08-29T13:51:49.925Z,5.60
2023-08-29T13:54:02.806Z,5.90
2023-08-29T13:56:15.746Z,5.70
2023-08-29T13:58:28.536Z,5.60
2023-08-29T14:00:41.169Z,6.30
2023-08-29T14:02:54.439Z,6.00
2023-08-29T14:05:08.039Z,5.70
2023-08-29T14:07:21.766Z,5.70
2023-08-29T14:09:34.427Z,5.90
2023-08-29T14:11:47.115Z,5.70
2023-08-29T14:13:59.731Z,5.90
2023-08-29T14:16:12.427Z,5.70
2023-08-29T14:18:25.018Z,6.10
2023-08-29T14:20:46.703Z,5.80
2023-08-29T14:23:02.183Z,5.60
2023-08-29T14:25:14.794Z,6.00
2023-08-29T14:27:27.732Z,6.10
2023-08-29T14:29:40.720Z,6.10
2023-08-29T14:31:53.381Z,5.50
2023-08-29T14:34:07.077Z,5.40
2023-08-29T14:36:19.856Z,5.90
2023-08-29T14:38:32.544Z,5.50
2023-08-29T14:40:45.167Z,5.80
2023-08-29T14:42:57.828Z,6.00
2023-08-29T14:45:11.003Z,5.70
2023-08-29T14:47:23.644Z,5.50
2023-08-29T14:49:36.715Z,5.90
2023-08-29T14:51:49.347Z,6.00
2023-08-29T14:54:04.518Z,6.50
2023-08-29T15:07:18.838Z,5.50
2023-08-29T15:09:31.440Z,6.30
2023-08-29T15:11:44.077Z,7.30
2023-08-29T15:13:56.725Z,6.40
2023-08-29T15:16:09.452Z,6.90
2023-08-29T15:18:22.228Z,6.60
2023-08-29T15:20:42.606Z,6.70
2023-08-29T15:22:55.226Z,7.20
2023-08-29T15:25:08.193Z,6.60
2023-08-29T15:27:20.893Z,6.60
2023-08-29T15:29:33.585Z,6.40
2023-08-29T15:31:46.341Z,6.30
2023-08-29T15:33:59.315Z,6.50
2023-08-29T15:36:11.960Z,6.60
2023-08-29T15:38:25.145Z,7.00
2023-08-29T15:40:41.660Z,9.40
2023-08-29T15:42:54.480Z,8.00
2023-08-29T15:45:07.440Z,7.00
2023-08-29T15:47:20.090Z,6.40
2023-08-29T15:49:32.720Z,6.70
2023-08-29T15:51:45.410Z,6.70
2023-08-29T15:53:58.599Z,7.00
2023-08-29T15:56:12.024Z,6.50
2023-08-29T15:58:24.692Z,6.50
2023-08-29T16:00:38.258Z,6.00
2023-08-29T16:05:04.352Z,6.20
2023-08-29T16:07:17.007Z,6.00
2023-08-29T16:09:31.792Z,6.00
2023-08-29T16:11:45.888Z,6.20
2023-08-29T16:13:58.540Z,5.90
2023-08-29T16:16:11.232Z,5.90
2023-08-29T16:18:24.694Z,6.10
2023-08-29T16:20:41.166Z,6.00
2023-08-29T16:22:55.341Z,6.80
2023-08-29T16:25:08.754Z,6.80
2023-08-29T16:27:21.418Z,7.50
2023-08-29T16:29:34.658Z,6.20
2023-08-29T16:31:47.237Z,6.80
2023-08-29T16:34:01.605Z,6.90
2023-08-29T16:36:15.771Z,6.60
2023-08-29T16:38:28.532Z,7.10
2023-08-29T16:40:41.212Z,5.80
2023-08-29T16:42:53.792Z,6.70
2023-08-29T16:45:07.314Z,5.80
2023-08-29T16:47:20.207Z,6.20
2023-08-29T16:49:32.863Z,5.70
2023-08-29T16:51:45.537Z,6.00
2023-08-29T16:53:58.154Z,5.80
2023-08-29T16:56:10.872Z,6.10
2023-08-29T16:58:23.518Z,5.80
2023-08-29T17:00:36.622Z,7.90
2023-08-29T17:02:49.352Z,5.90
2023-08-29T17:05:02.217Z,5.70
2023-08-29T17:07:14.868Z,5.70
2023-08-29T17:09:27.539Z,6.30
2023-08-29T17:11:40.133Z,6.10
2023-08-29T17:13:52.916Z,7.80
2023-08-29T17:16:06.135Z,6.60
2023-08-29T17:18:18.829Z,6.10
2023-08-29T17:20:31.926Z,6.10
2023-08-29T17:22:44.859Z,6.60
2023-08-29T17:24:57.689Z,6.10
2023-08-29T17:27:10.288Z,5.40
2023-08-29T17:29:23.605Z,6.50
2023-08-29T17:31:36.600Z,6.80
2023-08-29T17:33:49.276Z,6.10
2023-08-29T17:36:05.725Z,7.30
2023-08-29T17:38:18.453Z,6.00
2023-08-29T17:40:31.256Z,6.40
2023-08-29T17:42:44.674Z,6.70
2023-08-29T17:44:57.387Z,6.10
2023-08-29T17:47:10.087Z,6.50
2023-08-29T17:49:23.057Z,6.50
2023-08-29T17:51:36.669Z,7.40
2023-08-29T17:53:49.650Z,6.80
2023-08-29T17:56:02.209Z,7.20
2023-08-29T17:58:15.038Z,6.80
2023-08-29T18:00:27.686Z,6.50
2023-08-29T18:02:40.387Z,7.50
2023-08-29T18:04:53.166Z,6.20
2023-08-29T18:07:07.835Z,6.20
2023-08-29T18:09:20.738Z,6.10
2023-08-29T18:11:33.938Z,5.70
2023-08-29T18:13:46.863Z,5.70
2023-08-29T18:15:59.536Z,6.10
2023-08-29T18:18:30.047Z,6.20
2023-08-29T18:20:42.709Z,6.20
2023-08-29T18:22:56.792Z,6.20
2023-08-29T18:25:09.796Z,5.90
2023-08-29T18:27:23.787Z,6.30
2023-08-29T18:29:36.844Z,6.30
2023-08-29T18:31:49.483Z,7.30
2023-08-29T18:34:02.098Z,6.80
2023-08-29T18:36:14.819Z,7.20
2023-08-29T18:38:29.077Z,7.70
2023-08-29T18:40:41.852Z,7.40
2023-08-29T18:42:54.481Z,8.90
2023-08-29T18:45:07.513Z,7.60
2023-08-29T18:47:20.144Z,8.50
2023-08-29T18:49:33.399Z,8.20
2023-08-29T18:51:46.303Z,8.20
2023-08-29T18:53:59.018Z,8.20
2023-08-29T18:56:15.574Z,8.50
2023-08-29T18:58:28.199Z,8.20
2023-08-29T19:00:40.866Z,8.20
2023-08-29T19:02:55.968Z,7.90
2023-08-29T19:05:11.044Z,9.80
2023-08-29T19:07:23.828Z,8.10
2023-08-29T19:09:37.189Z,8.30
2023-08-29T19:11:50.180Z,8.50
2023-08-29T19:14:04.594Z,8.20
2023-08-29T19:16:17.270Z,7.70
2023-08-29T19:18:29.978Z,7.30
2023-08-29T19:20:42.649Z,8.00
2023-08-29T19:22:55.255Z,7.80
2023-08-29T19:25:08.340Z,7.60
2023-08-29T19:27:23.894Z,8.50
2023-08-29T19:29:39.727Z,8.20
2023-08-29T19:31:52.476Z,7.80
2023-08-29T19:34:05.575Z,8.00
2023-08-29T19:36:19.109Z,7.50
2023-08-29T19:38:31.703Z,9.20
2023-08-29T19:40:44.326Z,7.50
2023-08-29T19:42:57.694Z,6.90
2023-08-29T19:45:10.923Z,6.50
2023-08-29T19:47:26.340Z,7.80
2023-08-29T19:49:40.128Z,7.70
2023-08-29T19:51:53.367Z,6.90
2023-08-29T19:54:06.222Z,6.00
2023-08-29T19:56:18.829Z,6.30
2023-08-29T19:58:31.472Z,6.10
2023-08-29T20:00:44.612Z,5.90
2023-08-29T20:02:57.344Z,6.40
2023-08-29T20:05:10.082Z,5.90
2023-08-29T20:07:22.691Z,6.80
2023-08-29T20:09:36.289Z,5.30
2023-08-29T20:11:48.942Z,6.10
2023-08-29T20:14:01.589Z,6.10
2023-08-29T20:16:14.207Z,7.70
2023-08-29T20:18:26.803Z,8.10
2023-08-29T20:20:40.775Z,6.20
2023-08-29T20:22:53.454Z,5.60
2023-08-29T20:25:10.466Z,5.40
2023-08-29T20:27:23.119Z,7.60
2023-08-29T20:29:35.781Z,5.30
2023-08-29T20:31:48.383Z,5.40
2023-08-29T20:34:01.052Z,5.30
2023-08-29T20:36:13.924Z,4.90
2023-08-29T20:38:26.862Z,4.30
2023-08-29T20:40:40.710Z,5.50
2023-08-29T20:42:53.563Z,5.00
2023-08-29T20:45:08.026Z,4.50
2023-08-29T20:47:20.808Z,4.60
2023-08-29T20:49:33.397Z,4.10
2023-08-29T20:51:46.025Z,4.60
2023-08-29T20:53:58.708Z,4.20
2023-08-29T20:56:11.581Z,4.20
2023-08-29T20:58:24.567Z,4.90
2023-08-29T21:00:37.189Z,4.70
2023-08-29T21:02:49.965Z,3.70
2023-08-29T21:05:03.896Z,3.50
2023-08-29T21:07:16.668Z,3.40
2023-08-29T21:09:29.339Z,3.50
2023-08-29T21:11:42.021Z,3.60
2023-08-29T21:13:54.654Z,3.40
2023-08-29T21:16:07.296Z,3.40
2023-08-29T21:18:20.150Z,3.50
2023-08-29T21:20:35.446Z,2.80
2023-08-29T21:22:48.021Z,2.90
2023-08-29T21:25:00.791Z,3.40
2023-08-29T21:27:13.638Z,3.60
2023-08-29T21:29:26.374Z,6.80
2023-08-29T21:31:39.490Z,2.60
2023-08-29T21:33:52.168Z,3.00
2023-08-29T21:36:04.927Z,4.20
2023-08-29T21:38:18.178Z,3.70
2023-08-29T21:40:30.975Z,3.70
2023-08-29T21:42:45.251Z,2.60
2023-08-29T21:44:57.875Z,2.20
2023-08-29T21:47:10.499Z,2.50
2023-08-29T21:49:23.238Z,3.60
2023-08-29T21:51:35.823Z,2.20
2023-08-29T21:53:48.527Z,2.30
2023-08-29T21:56:01.119Z,2.50
2023-08-29T21:58:22.803Z,2.60
2023-08-29T22:00:35.661Z,2.00
2023-08-29T22:02:48.311Z,2.40
2023-08-29T22:05:01.065Z,2.30
2023-08-29T22:07:13.951Z,2.10
2023-08-29T22:09:26.566Z,3.60
2023-08-29T22:11:39.186Z,3.30
2023-08-29T22:13:51.765Z,3.10
2023-08-29T22:16:04.950Z,2.50
2023-08-29T22:18:17.765Z,2.60
2023-08-29T22:20:30.409Z,3.10
2023-08-29T22:22:43.055Z,1.90
2023-08-29T22:24:55.655Z,2.20
2023-08-29T22:27:09.355Z,2.40
2023-08-29T22:29:22.122Z,3.10
2023-08-29T22:31:34.748Z,2.80
2023-08-29T22:33:47.378Z,2.80
2023-08-29T22:35:59.997Z,1.90
2023-08-29T22:38:12.798Z,2.10
2023-08-29T22:40:25.733Z,1.90
2023-08-29T22:42:38.459Z,2.40
2023-08-29T22:44:51.564Z,2.90
2023-08-29T22:47:04.441Z,1.90
2023-08-29T22:49:17.081Z,1.80
2023-08-29T22:51:29.712Z,2.30
2023-08-29T22:53:42.345Z,1.80
2023-08-29T22:55:54.962Z,1.90
2023-08-29T22:58:07.860Z,3.00
2023-08-29T23:00:22.018Z,2.30
2023-08-29T23:02:34.688Z,3.10
2023-08-29T23:04:47.401Z,2.00
2023-08-29T23:07:18.273Z,2.40
2023-08-29T23:09:33.055Z,2.80
2023-08-29T23:11:45.815Z,2.20
2023-08-29T23:13:58.464Z,2.00
2023-08-29T23:16:11.661Z,3.30
2023-08-29T23:18:24.721Z,2.90
2023-08-29T23:20:37.360Z,3.30
2023-08-29T23:22:50.655Z,3.30
2023-08-29T23:25:05.622Z,1.90
2023-08-29T23:27:18.271Z,1.90
2023-08-29T23:29:33.899Z,1.80
2023-08-29T23:31:47.337Z,2.50
2023-08-29T23:34:00.202Z,2.90
2023-08-29T23:36:12.909Z,3.40
2023-08-29T23:38:25.566Z,2.20
2023-08-29T23:40:38.357Z,3.50
2023-08-29T23:42:50.994Z,1.70
2023-08-29T23:45:06.701Z,2.60
2023-08-29T23:47:19.317Z,3.50
2023-08-29T23:49:31.919Z,1.90
2023-08-29T23:51:44.500Z,1.70
2023-08-29T23:53:57.109Z,1.80
2023-08-29T23:56:09.725Z,2.20
2023-08-29T23:58:22.584Z,1.80
